Time;durP1;ratioP1;P1;durP2;ratioP2;P2;SDS_P1;SDS_P2;PMS_P1;PMS_P2;Temp;Humidity;BMP_temperature;BMP_pressure;BME280_temperature;BME280_humidity;BME280_pressure;Samples;Min_cycle;Max_cycle;Signal;HPM_P1;HPM_P2
2023/04/14 00:00:25;;;;;;;14.82;5.03;;;3.10;98.90;;;;;;5037670;28;20483;-71
2023/04/14 00:02:51;;;;;;;12.48;4.95;;;3.10;98.90;;;;;;5025388;28;20057;-72
2023/04/14 00:05:17;;;;;;;12.13;4.60;;;3.00;98.70;;;;;;5023142;28;20025;-71
2023/04/14 00:07:42;;;;;;;11.55;4.95;;;2.90;98.80;;;;;;5032538;28;20328;-72
2023/04/14 00:10:08;;;;;;;9.05;4.38;;;2.90;98.90;;;;;;5025830;28;20026;-71
2023/04/14 00:12:34;;;;;;;15.15;4.65;;;2.80;98.80;;;;;;5017949;28;20388;-71
2023/04/14 00:15:02;;;;;;;11.77;4.00;;;2.70;98.90;;;;;;5004670;28;20130;-72
2023/04/14 00:17:29;;;;;;;10.25;4.18;;;2.80;99.00;;;;;;5020333;28;20160;-71
2023/04/14 00:19:55;;;;;;;11.10;3.97;;;2.70;98.80;;;;;;5024640;28;20063;-73
2023/04/14 00:22:21;;;;;;;15.00;4.72;;;2.70;99.00;;;;;;5021159;28;20037;-71
2023/04/14 00:24:46;;;;;;;12.77;5.28;;;2.80;99.10;;;;;;5020753;28;20056;-72
2023/04/14 00:27:12;;;;;;;16.05;5.30;;;2.80;99.10;;;;;;5024461;28;20013;-72
2023/04/14 00:29:38;;;;;;;9.45;4.47;;;2.80;99.00;;;;;;5005004;28;20030;-72
2023/04/14 00:32:04;;;;;;;11.57;5.38;;;2.70;99.00;;;;;;5006520;28;20460;-71
2023/04/14 00:34:30;;;;;;;11.45;4.85;;;2.60;98.90;;;;;;5027349;28;20110;-72
2023/04/14 00:36:55;;;;;;;12.43;4.50;;;2.60;99.00;;;;;;5022146;28;20434;-72
2023/04/14 00:39:21;;;;;;;12.57;5.53;;;2.60;99.00;;;;;;5022352;28;20049;-72
2023/04/14 00:41:47;;;;;;;14.93;5.97;;;2.40;99.00;;;;;;5015326;28;20049;-72
2023/04/14 00:44:12;;;;;;;10.73;5.13;;;2.40;99.00;;;;;;5028417;28;20139;-73
2023/04/14 00:46:39;;;;;;;11.80;5.40;;;2.30;99.00;;;;;;5030314;28;20029;-72
2023/04/14 00:49:05;;;;;;;15.05;5.50;;;2.30;99.10;;;;;;5028996;28;20056;-71
2023/04/14 00:51:31;;;;;;;10.75;4.63;;;2.30;99.10;;;;;;5038345;28;20033;-71
2023/04/14 00:53:57;;;;;;;10.95;5.35;;;2.30;99.20;;;;;;5028245;28;20040;-71
2023/04/14 00:56:25;;;;;;;15.32;5.35;;;2.40;99.30;;;;;;5027537;28;20036;-71
2023/04/14 00:58:51;;;;;;;9.95;4.78;;;2.50;99.30;;;;;;5011580;28;20053;-71
2023/04/14 01:01:16;;;;;;;13.30;5.32;;;2.50;99.30;;;;;;5028605;28;20364;-71
2023/04/14 01:03:43;;;;;;;10.45;5.07;;;2.60;99.40;;;;;;5023210;28;20034;-72
2023/04/14 01:06:08;;;;;;;12.68;5.20;;;2.70;99.40;;;;;;5024651;28;20041;-72
2023/04/14 01:08:34;;;;;;;11.95;5.47;;;2.60;99.30;;;;;;5029306;28;20425;-71
2023/04/14 01:11:06;;;;;;;14.23;5.75;;;2.60;99.30;;;;;;5025515;28;20045;-71
2023/04/14 01:14:06;;;;;;;15.43;5.40;;;2.60;99.30;;;;;;5028309;28;20116;-71
2023/04/14 01:16:35;;;;;;;13.50;6.20;;;2.40;99.20;;;;;;5004628;28;20364;-71
2023/04/14 01:19:32;;;;;;;13.13;5.57;;;2.50;99.40;;;;;;5025952;28;20057;-73
2023/04/14 01:22:03;;;;;;;15.02;6.47;;;2.30;99.30;;;;;;5024414;28;20029;-72
2023/04/14 01:24:43;;;;;;;13.90;5.90;;;2.30;99.30;;;;;;5031576;28;20784;-71
2023/04/14 01:27:34;;;;;;;19.30;5.70;;;2.30;99.40;;;;;;5029660;28;20038;-72
2023/04/14 01:30:22;;;;;;;17.40;6.25;;;2.20;99.40;;;;;;5026516;28;20033;-72
2023/04/14 01:32:50;;;;;;;20.90;7.22;;;2.20;99.40;;;;;;4994653;28;20028;-71
2023/04/14 01:35:37;;;;;;;14.45;7.15;;;2.30;99.60;;;;;;5016307;28;20438;-71
2023/04/14 01:38:17;;;;;;;21.60;8.05;;;2.30;99.60;;;;;;5021317;28;20056;-72
2023/04/14 01:40:50;;;;;;;20.97;7.23;;;2.30;99.70;;;;;;5023038;28;20650;-71
2023/04/14 01:43:19;;;;;;;15.50;6.93;;;2.40;99.70;;;;;;5026021;28;20705;-71
2023/04/14 01:45:50;;;;;;;18.70;7.30;;;2.50;99.80;;;;;;5029253;28;20108;-71
2023/04/14 01:48:16;;;;;;;23.17;7.35;;;2.60;99.80;;;;;;5028279;28;20030;-71
2023/04/14 01:50:43;;;;;;;16.20;7.00;;;2.60;99.80;;;;;;5026601;28;20162;-71
2023/04/14 01:53:11;;;;;;;22.30;7.63;;;2.60;99.70;;;;;;5022262;28;20017;-71
2023/04/14 01:55:39;;;;;;;20.60;8.27;;;2.60;99.70;;;;;;5020879;28;20363;-71
2023/04/14 01:58:06;;;;;;;17.45;8.13;;;2.60;99.70;;;;;;5029147;28;20034;-71
2023/04/14 02:00:34;;;;;;;20.13;7.65;;;2.50;99.70;;;;;;5028169;28;20048;-71
2023/04/14 02:03:02;;;;;;;20.80;7.88;;;2.50;99.70;;;;;;5026045;28;20025;-76
2023/04/14 02:05:29;;;;;;;30.20;8.45;;;2.50;99.80;;;;;;5016855;28;20049;-72
2023/04/14 02:07:58;;;;;;;17.58;7.50;;;2.60;99.80;;;;;;5031978;28;20056;-71
2023/04/14 02:10:24;;;;;;;21.50;7.40;;;2.60;99.80;;;;;;5026634;28;20113;-71
2023/04/14 02:12:53;;;;;;;18.80;7.07;;;2.60;99.80;;;;;;5032881;28;20083;-71
2023/04/14 02:15:21;;;;;;;18.35;7.47;;;2.60;99.80;;;;;;5037314;28;20073;-72
2023/04/14 02:17:49;;;;;;;18.08;7.80;;;2.40;99.70;;;;;;5047198;28;20088;-71
2023/04/14 02:20:15;;;;;;;17.95;7.57;;;2.40;99.70;;;;;;5029400;28;20438;-71
2023/04/14 02:22:41;;;;;;;16.10;6.47;;;2.40;99.80;;;;;;5026589;28;20041;-71
2023/04/14 02:25:07;;;;;;;18.20;6.22;;;2.40;99.80;;;;;;5020148;28;20034;-70
2023/04/14 02:27:38;;;;;;;14.55;6.03;;;2.50;99.90;;;;;;5027072;28;20110;-71
2023/04/14 02:30:11;;;;;;;12.95;6.03;;;2.60;99.90;;;;;;5027138;28;20079;-71
2023/04/14 02:32:39;;;;;;;13.85;6.50;;;2.50;99.90;;;;;;5028323;28;20085;-71
2023/04/14 02:35:15;;;;;;;27.30;6.65;;;2.40;99.90;;;;;;5027710;28;20044;-72
2023/04/14 02:37:46;;;;;;;18.48;6.43;;;2.40;99.90;;;;;;5023855;28;20095;-73
2023/04/14 02:40:17;;;;;;;13.65;5.88;;;2.40;99.90;;;;;;5006063;28;20354;-70
2023/04/14 02:42:47;;;;;;;17.08;6.78;;;2.50;99.90;;;;;;5010969;28;20041;-72
2023/04/14 02:45:18;;;;;;;19.60;6.93;;;2.70;99.90;;;;;;5021774;28;20084;-72
2023/04/14 02:47:48;;;;;;;17.95;7.00;;;2.70;99.90;;;;;;5022612;28;20025;-71
2023/04/14 02:50:15;;;;;;;19.10;6.95;;;2.60;99.90;;;;;;5018137;28;20064;-72
2023/04/14 02:52:42;;;;;;;15.35;6.22;;;2.60;99.90;;;;;;5015268;28;20125;-71
2023/04/14 02:55:09;;;;;;;15.27;6.05;;;2.70;99.90;;;;;;5015379;28;20044;-72
2023/04/14 02:57:36;;;;;;;18.45;6.50;;;2.60;99.90;;;;;;5027471;28;20057;-71
2023/04/14 03:00:02;;;;;;;21.38;6.57;;;2.60;99.90;;;;;;5042899;28;20017;-72
2023/04/14 03:02:28;;;;;;;15.60;6.40;;;2.60;99.90;;;;;;5040086;28;20083;-75
2023/04/14 03:04:54;;;;;;;23.20;7.05;;;2.60;99.90;;;;;;5021262;28;20033;-71
2023/04/14 03:07:20;;;;;;;16.80;7.10;;;2.60;99.90;;;;;;5042861;28;20025;-72
2023/04/14 03:09:49;;;;;;;16.08;6.10;;;2.50;99.90;;;;;;5024635;28;20032;-73
2023/04/14 03:12:17;;;;;;;19.92;6.80;;;2.40;99.80;;;;;;5031167;28;20296;-72
2023/04/14 03:14:44;;;;;;;17.20;6.47;;;2.50;99.90;;;;;;5033394;28;20052;-71
2023/04/14 03:17:10;;;;;;;19.10;6.60;;;2.40;99.90;;;;;;5009382;28;20068;-72
2023/04/14 03:19:39;;;;;;;18.23;6.70;;;2.40;99.90;;;;;;5025871;28;20028;-71
2023/04/14 03:22:06;;;;;;;21.00;6.10;;;2.40;99.90;;;;;;5025782;28;20045;-72
2023/04/14 03:24:33;;;;;;;23.38;6.38;;;2.40;99.90;;;;;;5018057;28;20741;-72
2023/04/14 03:27:04;;;;;;;20.48;6.53;;;2.20;99.80;;;;;;5026380;28;20044;-72
2023/04/14 03:29:34;;;;;;;21.65;5.90;;;2.10;99.90;;;;;;5026656;28;20339;-73
2023/04/14 03:32:05;;;;;;;18.00;6.32;;;2.10;99.90;;;;;;5012746;28;20488;-71
2023/04/14 03:34:32;;;;;;;14.73;5.95;;;2.10;99.90;;;;;;5022516;28;20205;-73
2023/04/14 03:36:59;;;;;;;15.60;6.10;;;2.10;99.90;;;;;;5025416;28;20026;-71
2023/04/14 03:39:26;;;;;;;16.13;6.25;;;1.90;99.80;;;;;;5025379;28;20068;-71
2023/04/14 03:41:54;;;;;;;14.95;6.30;;;1.90;99.90;;;;;;5025636;28;20021;-71
2023/04/14 03:44:22;;;;;;;17.25;6.43;;;1.80;99.80;;;;;;5030058;28;20113;-71
2023/04/14 03:46:52;;;;;;;18.00;6.25;;;1.70;99.90;;;;;;5034410;28;20115;-71
2023/04/14 03:49:19;;;;;;;16.85;6.13;;;1.60;99.90;;;;;;5035176;28;20473;-70
2023/04/14 03:51:48;;;;;;;17.90;5.53;;;1.70;99.90;;;;;;5015802;28;20107;-71
2023/04/14 03:54:15;;;;;;;14.07;6.18;;;1.70;99.90;;;;;;5022650;28;20033;-72
2023/04/14 03:56:44;;;;;;;19.90;6.63;;;1.90;99.90;;;;;;5023185;28;20032;-71
2023/04/14 03:59:14;;;;;;;14.60;6.10;;;1.70;99.90;;;;;;5023988;28;20067;-71
2023/04/14 04:01:40;;;;;;;16.17;6.23;;;1.60;99.90;;;;;;5017401;28;20036;-72
2023/04/14 04:04:07;;;;;;;14.93;6.15;;;1.60;99.90;;;;;;5025482;28;20049;-71
2023/04/14 04:06:35;;;;;;;19.85;7.07;;;1.50;99.90;;;;;;5018135;28;20048;-71
2023/04/14 04:09:02;;;;;;;16.27;6.70;;;1.50;99.90;;;;;;5021246;28;20053;-71
2023/04/14 04:11:29;;;;;;;13.00;6.05;;;1.50;99.90;;;;;;5024585;28;20124;-71
2023/04/14 04:13:55;;;;;;;15.20;6.68;;;1.40;99.90;;;;;;5023443;28;20033;-71
2023/04/14 04:16:23;;;;;;;15.90;6.95;;;1.30;99.90;;;;;;5025067;28;20045;-74
2023/04/14 04:18:49;;;;;;;21.85;6.60;;;1.20;99.90;;;;;;5020757;28;20033;-71
2023/04/14 04:21:18;;;;;;;14.88;6.45;;;1.10;99.90;;;;;;5036829;28;20103;-71
2023/04/14 04:23:50;;;;;;;17.85;6.93;;;1.10;99.90;;;;;;5030770;28;20381;-71
2023/04/14 04:26:17;;;;;;;22.70;6.85;;;1.10;99.90;;;;;;5026000;28;20326;-71
2023/04/14 04:28:43;;;;;;;15.43;6.40;;;1.10;99.90;;;;;;5020317;28;20030;-71
2023/04/14 04:31:09;;;;;;;19.02;6.82;;;1.10;99.90;;;;;;5021654;28;20033;-73
2023/04/14 04:33:36;;;;;;;17.35;6.53;;;1.10;99.90;;;;;;5028293;28;20025;-71
2023/04/14 04:36:04;;;;;;;17.88;7.00;;;1.10;99.90;;;;;;5029602;28;20408;-71
2023/04/14 04:38:29;;;;;;;17.55;7.10;;;1.20;99.90;;;;;;5034196;28;20081;-71
2023/04/14 04:40:55;;;;;;;16.92;6.78;;;1.20;99.90;;;;;;5023760;28;20070;-71
2023/04/14 04:43:21;;;;;;;23.15;6.82;;;1.20;99.90;;;;;;5026536;28;20065;-73
2023/04/14 04:46:08;;;;;;;16.77;7.03;;;1.10;99.90;;;;;;5022218;28;20025;-71
2023/04/14 04:48:33;;;;;;;17.30;7.22;;;1.10;99.90;;;;;;5016765;28;20054;-72
2023/04/14 04:50:59;;;;;;;17.05;7.30;;;1.10;99.90;;;;;;5024320;28;20100;-74
2023/04/14 04:53:24;;;;;;;15.77;7.80;;;1.10;99.90;;;;;;5025997;28;20034;-72
2023/04/14 04:55:50;;;;;;;18.55;7.53;;;1.10;99.90;;;;;;5017863;28;20128;-72
2023/04/14 04:58:15;;;;;;;23.85;7.90;;;1.10;99.90;;;;;;5022020;28;20029;-77
2023/04/14 05:00:42;;;;;;;20.88;7.63;;;1.20;99.90;;;;;;5022211;28;20045;-78
2023/04/14 05:03:07;;;;;;;19.23;7.63;;;1.20;99.90;;;;;;5027915;28;20367;-78
2023/04/14 05:05:36;;;;;;;21.23;8.18;;;1.30;99.90;;;;;;5020929;28;20036;-76
2023/04/14 05:08:01;;;;;;;19.50;7.63;;;1.30;99.90;;;;;;5026491;28;20091;-70
2023/04/14 05:10:27;;;;;;;20.40;7.97;;;1.30;99.90;;;;;;5025844;28;20059;-71
2023/04/14 05:12:52;;;;;;;20.17;7.80;;;1.30;99.90;;;;;;5024895;28;20025;-71
2023/04/14 05:15:18;;;;;;;20.67;8.02;;;1.30;99.90;;;;;;5021171;28;20723;-71
2023/04/14 05:17:43;;;;;;;22.58;8.60;;;1.40;99.90;;;;;;5029369;28;20048;-69
2023/04/14 05:20:10;;;;;;;23.00;8.48;;;1.50;99.90;;;;;;5028149;28;20477;-68
2023/04/14 05:22:35;;;;;;;21.42;8.90;;;1.60;99.90;;;;;;5027399;28;20033;-70
2023/04/14 05:25:01;;;;;;;25.27;9.05;;;1.60;99.90;;;;;;5005699;28;20044;-70
2023/04/14 05:27:26;;;;;;;23.70;9.35;;;1.60;99.90;;;;;;5028910;28;20116;-71
2023/04/14 05:29:51;;;;;;;23.42;9.18;;;1.70;99.90;;;;;;5027331;28;20022;-70
2023/04/14 05:32:17;;;;;;;24.77;10.20;;;1.70;99.90;;;;;;5025261;28;20033;-73
2023/04/14 05:34:42;;;;;;;26.73;9.90;;;1.70;99.90;;;;;;5025167;28;20033;-70
2023/04/14 05:37:08;;;;;;;29.00;9.93;;;1.80;99.90;;;;;;5020253;28;20036;-70
2023/04/14 05:39:34;;;;;;;24.80;11.40;;;1.80;99.90;;;;;;5024369;28;20109;-70
2023/04/14 05:42:00;;;;;;;30.73;11.55;;;1.80;99.90;;;;;;5024626;28;20399;-71
2023/04/14 05:44:25;;;;;;;28.52;10.85;;;1.90;99.90;;;;;;5024879;28;20060;-70
2023/04/14 05:46:51;;;;;;;28.80;10.88;;;2.00;99.90;;;;;;5027267;28;20415;-70
2023/04/14 05:49:16;;;;;;;34.45;10.65;;;2.10;99.90;;;;;;5021640;28;20026;-72
2023/04/14 05:51:42;;;;;;;34.40;12.75;;;2.20;99.90;;;;;;5031331;28;20099;-69
2023/04/14 05:54:08;;;;;;;31.75;12.32;;;2.30;99.90;;;;;;5024894;28;20108;-69
2023/04/14 05:56:33;;;;;;;40.72;14.70;;;2.40;99.90;;;;;;5039415;28;20029;-70
2023/04/14 05:58:59;;;;;;;39.72;15.50;;;2.50;99.90;;;;;;5005942;28;20147;-70
2023/04/14 06:01:25;;;;;;;39.55;13.98;;;2.60;99.90;;;;;;5027708;28;20096;-70
2023/04/14 06:03:50;;;;;;;39.60;13.98;;;2.70;99.90;;;;;;5026314;28;20112;-70
2023/04/14 06:06:16;;;;;;;31.48;12.07;;;2.80;99.90;;;;;;5022654;28;20029;-69
2023/04/14 06:08:41;;;;;;;46.05;21.77;;;2.90;99.90;;;;;;5025686;28;20186;-69
2023/04/14 06:11:07;;;;;;;54.58;22.83;;;3.10;99.90;;;;;;5019462;28;20120;-70
2023/04/14 06:13:32;;;;;;;47.25;21.23;;;3.20;99.90;;;;;;5031971;28;20113;-70
2023/04/14 06:15:59;;;;;;;41.28;16.95;;;3.30;99.90;;;;;;5025807;28;20198;-70
2023/04/14 06:18:25;;;;;;;31.15;15.10;;;3.50;99.90;;;;;;5028191;28;20501;-70
2023/04/14 06:20:50;;;;;;;41.90;15.82;;;3.70;99.90;;;;;;5013068;28;20029;-71
2023/04/14 06:23:16;;;;;;;54.83;23.75;;;3.80;99.90;;;;;;5025794;28;20025;-72
2023/04/14 06:25:41;;;;;;;68.00;32.65;;;3.90;99.90;;;;;;5033040;28;20457;-70
2023/04/14 06:28:07;;;;;;;70.53;35.10;;;4.10;99.90;;;;;;5028258;28;20072;-71
2023/04/14 06:30:33;;;;;;;65.85;30.60;;;4.20;99.90;;;;;;5021653;28;20029;-70
2023/04/14 06:33:02;;;;;;;44.28;17.80;;;4.30;99.90;;;;;;5017283;28;20461;-71
2023/04/14 06:35:33;;;;;;;44.30;16.33;;;4.60;99.90;;;;;;5028647;28;20173;-71
2023/04/14 06:38:02;;;;;;;43.38;16.48;;;4.70;99.90;;;;;;5035897;28;20387;-71
2023/04/14 06:40:27;;;;;;;43.63;16.70;;;4.80;99.90;;;;;;5025119;28;20055;-72
2023/04/14 06:42:53;;;;;;;45.63;19.20;;;5.00;99.90;;;;;;5027195;28;20033;-72
2023/04/14 06:45:18;;;;;;;49.53;17.92;;;5.10;99.80;;;;;;5023923;28;20029;-70
2023/04/14 06:47:44;;;;;;;47.05;17.92;;;5.30;99.70;;;;;;5033219;28;20032;-70
2023/04/14 06:50:09;;;;;;;43.45;16.05;;;5.50;99.60;;;;;;5029313;28;20107;-71
2023/04/14 06:52:35;;;;;;;39.22;15.40;;;5.80;99.80;;;;;;5008889;28;20029;-70
2023/04/14 06:55:00;;;;;;;39.72;15.85;;;6.00;99.40;;;;;;5001095;28;20076;-70
2023/04/14 06:57:26;;;;;;;45.35;15.45;;;6.30;99.40;;;;;;5026429;28;20059;-70
2023/04/14 06:59:52;;;;;;;35.53;12.25;;;6.50;99.20;;;;;;5027445;28;20044;-70
2023/04/14 07:02:17;;;;;;;34.90;13.73;;;7.10;99.70;;;;;;5013255;28;20355;-70
2023/04/14 07:04:42;;;;;;;36.58;14.70;;;7.30;98.60;;;;;;5026593;28;20097;-70
2023/04/14 07:07:08;;;;;;;34.40;14.10;;;7.40;96.90;;;;;;5024462;28;20037;-70
2023/04/14 07:09:33;;;;;;;29.02;12.45;;;7.60;96.50;;;;;;5024401;28;20041;-70
2023/04/14 07:12:00;;;;;;;28.60;12.15;;;7.70;95.70;;;;;;5025651;28;20043;-71
2023/04/14 07:14:25;;;;;;;29.17;11.32;;;7.80;95.70;;;;;;5025260;28;20033;-70
2023/04/14 07:16:51;;;;;;;30.73;10.95;;;8.20;95.50;;;;;;5025106;28;20160;-71
2023/04/14 07:19:17;;;;;;;23.35;10.48;;;8.20;95.10;;;;;;5008355;28;20315;-73
2023/04/14 07:21:45;;;;;;;18.95;10.05;;;8.50;94.60;;;;;;5021863;28;20033;-71
2023/04/14 07:24:11;;;;;;;21.98;9.93;;;8.60;93.30;;;;;;5023504;28;20037;-72
2023/04/14 07:26:37;;;;;;;18.90;8.52;;;8.60;92.60;;;;;;5028557;28;20074;-72
2023/04/14 07:29:02;;;;;;;14.55;7.32;;;8.80;92.90;;;;;;5025894;28;20033;-70
2023/04/14 07:31:30;;;;;;;12.35;7.28;;;8.70;91.50;;;;;;5016664;28;20026;-70
2023/04/14 07:33:55;;;;;;;15.82;6.63;;;9.00;92.60;;;;;;5021572;28;20043;-70
2023/04/14 07:36:21;;;;;;;10.18;5.57;;;9.10;91.40;;;;;;5006347;28;20033;-72
2023/04/14 07:38:49;;;;;;;14.32;5.78;;;9.10;90.00;;;;;;5025108;28;20033;-71
2023/04/14 07:41:15;;;;;;;11.20;5.07;;;9.40;91.10;;;;;;5023781;28;20108;-70
2023/04/14 07:43:40;;;;;;;8.98;3.88;;;9.30;89.50;;;;;;5026326;28;20125;-71
2023/04/14 07:46:07;;;;;;;10.82;4.15;;;9.30;88.60;;;;;;5026723;28;20032;-70
2023/04/14 07:48:36;;;;;;;10.32;4.18;;;9.50;89.50;;;;;;5026517;28;20040;-71
2023/04/14 07:51:03;;;;;;;9.73;3.78;;;9.50;88.40;;;;;;5015630;28;20025;-71
2023/04/14 07:53:29;;;;;;;9.85;3.30;;;9.80;88.80;;;;;;5026385;28;20112;-72
2023/04/14 07:55:56;;;;;;;11.13;3.05;;;10.00;87.50;;;;;;5034043;28;20459;-70
2023/04/14 07:58:21;;;;;;;8.82;2.03;;;10.40;86.10;;;;;;5020815;28;20074;-71
2023/04/14 08:00:47;;;;;;;5.32;2.22;;;10.60;85.70;;;;;;5030789;28;20029;-71
2023/04/14 08:03:12;;;;;;;4.65;1.95;;;10.80;86.10;;;;;;5018275;28;20037;-71
2023/04/14 08:05:38;;;;;;;5.22;1.92;;;11.00;85.70;;;;;;5024345;28;20343;-72
2023/04/14 08:08:03;;;;;;;6.50;2.30;;;11.10;83.10;;;;;;5021778;28;20388;-71
2023/04/14 08:10:29;;;;;;;7.65;1.85;;;11.40;82.50;;;;;;5017198;28;20558;-71
2023/04/14 08:12:54;;;;;;;7.28;2.30;;;11.60;80.80;;;;;;5031403;28;20069;-71
2023/04/14 08:15:20;;;;;;;3.72;1.40;;;11.60;79.60;;;;;;5030057;28;20144;-71
2023/04/14 08:17:46;;;;;;;7.50;1.48;;;11.80;78.60;;;;;;5029639;28;20025;-71
2023/04/14 08:20:11;;;;;;;5.93;1.40;;;11.80;77.10;;;;;;5030477;28;20097;-71
2023/04/14 08:22:37;;;;;;;8.15;1.17;;;12.00;78.40;;;;;;5033542;28;20053;-71
2023/04/14 08:25:02;;;;;;;3.80;1.27;;;12.10;75.50;;;;;;5021275;28;20386;-71
2023/04/14 08:27:28;;;;;;;10.52;1.35;;;12.10;73.70;;;;;;5027796;28;20328;-71
2023/04/14 08:29:53;;;;;;;5.25;1.35;;;12.30;75.50;;;;;;5036993;28;20035;-71
2023/04/14 08:32:19;;;;;;;5.05;1.08;;;12.10;72.40;;;;;;5029156;28;20050;-72
2023/04/14 08:34:45;;;;;;;6.45;1.48;;;12.20;74.00;;;;;;5017393;28;20128;-72
2023/04/14 08:37:10;;;;;;;3.72;1.40;;;12.00;73.20;;;;;;5028475;28;20021;-71
2023/04/14 08:39:35;;;;;;;8.93;1.60;;;12.10;74.40;;;;;;5022866;28;20033;-71
2023/04/14 08:42:01;;;;;;;7.53;1.20;;;12.20;73.30;;;;;;5025425;28;20072;-71
2023/04/14 08:44:28;;;;;;;3.20;1.27;;;12.10;73.70;;;;;;5030513;28;20099;-71
2023/04/14 08:46:54;;;;;;;7.35;1.13;;;12.40;71.50;;;;;;5026942;28;20036;-71
2023/04/14 08:49:49;;;;;;;5.93;1.20;;;12.70;74.00;;;;;;5033807;28;20034;-72
2023/04/14 08:52:18;;;;;;;7.38;1.30;;;12.60;67.80;;;;;;5006686;28;20086;-72
2023/04/14 08:54:47;;;;;;;8.48;1.40;;;12.70;69.40;;;;;;5024102;28;20175;-72
2023/04/14 08:57:17;;;;;;;6.82;1.10;;;12.90;68.50;;;;;;5029359;28;20339;-72
2023/04/14 08:59:42;;;;;;;7.72;1.33;;;13.00;65.70;;;;;;5008194;28;20071;-72
2023/04/14 09:02:10;;;;;;;4.03;1.05;;;13.10;65.70;;;;;;5022484;28;20080;-71
2023/04/14 09:04:38;;;;;;;6.72;1.40;;;13.30;67.70;;;;;;5025013;28;20029;-76
2023/04/14 09:07:04;;;;;;;6.82;1.50;;;13.40;66.60;;;;;;5021859;28;20125;-76
2023/04/14 09:09:30;;;;;;;3.65;1.00;;;13.10;62.70;;;;;;5023932;28;20075;-74
2023/04/14 09:11:57;;;;;;;3.45;1.17;;;13.30;63.10;;;;;;5023818;28;20045;-73
2023/04/14 09:14:23;;;;;;;3.47;1.00;;;13.10;61.20;;;;;;5027861;28;20025;-76
2023/04/14 09:16:52;;;;;;;6.05;0.98;;;13.20;64.60;;;;;;5027363;28;20383;-78
2023/04/14 09:19:23;;;;;;;5.03;1.42;;;13.70;63.00;;;;;;5025486;28;20021;-78
2023/04/14 09:21:48;;;;;;;3.50;1.10;;;13.80;63.40;;;;;;5024151;28;20017;-77
2023/04/14 09:24:22;;;;;;;4.45;0.88;;;13.90;61.60;;;;;;5023798;28;20407;-75
2023/04/14 09:26:48;;;;;;;5.20;1.10;;;13.70;61.00;;;;;;5011658;28;20037;-75
2023/04/14 09:29:14;;;;;;;5.45;1.08;;;13.70;63.60;;;;;;5026756;28;20021;-76
2023/04/14 09:31:39;;;;;;;6.60;1.52;;;13.80;62.60;;;;;;5027933;28;20026;-76
2023/04/14 09:34:17;;;;;;;5.03;1.23;;;13.90;61.20;;;;;;5011025;28;20029;-77
2023/04/14 09:37:02;;;;;;;5.28;0.93;;;13.90;61.30;;;;;;5025771;28;20057;-77
2023/04/14 09:39:28;;;;;;;8.60;0.95;;;13.80;60.80;;;;;;5014525;28;20036;-77
2023/04/14 09:41:54;;;;;;;6.68;1.20;;;14.20;62.10;;;;;;5026649;28;20469;-76
2023/04/14 09:44:20;;;;;;;6.10;1.10;;;14.20;59.10;;;;;;5029660;28;20021;-77
2023/04/14 09:47:00;;;;;;;4.25;0.90;;;14.30;59.70;;;;;;5027254;28;20041;-77
2023/04/14 09:49:27;;;;;;;4.65;1.00;;;14.20;58.70;;;;;;5025384;28;20116;-75
2023/04/14 09:51:56;;;;;;;4.05;1.25;;;14.30;60.10;;;;;;5030104;28;20060;-72
2023/04/14 09:54:25;;;;;;;6.93;1.23;;;14.30;58.30;;;;;;5025646;28;20041;-72
2023/04/14 09:56:55;;;;;;;4.25;0.95;;;14.40;58.60;;;;;;5026697;28;20030;-72
2023/04/14 09:59:31;;;;;;;6.60;1.37;;;14.50;58.60;;;;;;5024662;28;20142;-72
2023/04/14 10:01:58;;;;;;;6.07;1.20;;;14.70;59.70;;;;;;5021456;28;20453;-72
2023/04/14 10:04:25;;;;;;;4.43;1.30;;;14.60;57.50;;;;;;5021244;28;20029;-74
2023/04/14 10:06:57;;;;;;;5.78;1.70;;;15.10;58.00;;;;;;5023343;28;20025;-72
2023/04/14 10:09:25;;;;;;;4.82;1.10;;;15.30;56.80;;;;;;5021110;28;20025;-73
2023/04/14 10:12:11;;;;;;;8.07;1.10;;;15.30;56.30;;;;;;5025920;28;20414;-72
2023/04/14 10:14:37;;;;;;;6.57;1.20;;;15.30;57.80;;;;;;5027738;28;20080;-72
2023/04/14 10:17:03;;;;;;;4.60;1.10;;;15.00;56.00;;;;;;5025727;28;20109;-72
2023/04/14 10:19:29;;;;;;;5.57;1.50;;;15.00;57.20;;;;;;5026113;28;20056;-74
2023/04/14 10:21:56;;;;;;;6.28;1.40;;;14.80;57.30;;;;;;5024476;28;20055;-72
2023/04/14 10:24:23;;;;;;;3.25;1.25;;;14.80;58.80;;;;;;5011379;28;20438;-73
2023/04/14 10:26:49;;;;;;;7.65;1.38;;;15.00;58.10;;;;;;5023866;28;20460;-72
2023/04/14 10:29:15;;;;;;;5.05;1.27;;;14.80;56.40;;;;;;5021917;28;20028;-74
2023/04/14 10:31:45;;;;;;;6.43;1.40;;;14.80;57.80;;;;;;5021141;28;20030;-72
2023/04/14 10:34:12;;;;;;;8.23;1.70;;;14.90;58.40;;;;;;5019422;28;20045;-72
2023/04/14 10:36:39;;;;;;;5.50;1.25;;;15.10;57.70;;;;;;5012696;28;20024;-72
2023/04/14 10:39:05;;;;;;;7.07;1.30;;;15.10;57.50;;;;;;5023267;28;20025;-72
2023/04/14 10:41:44;;;;;;;8.90;1.58;;;15.30;59.20;;;;;;5013685;28;20109;-74
2023/04/14 10:44:23;;;;;;;6.50;1.27;;;15.10;58.00;;;;;;5016448;28;20086;-73
2023/04/14 10:46:49;;;;;;;4.97;1.58;;;15.10;56.90;;;;;;5016271;28;20038;-74
2023/04/14 10:49:14;;;;;;;4.18;0.98;;;15.00;58.00;;;;;;5029372;28;20090;-76
2023/04/14 10:51:40;;;;;;;4.15;1.20;;;14.80;57.10;;;;;;5010813;28;20065;-73
2023/04/14 10:54:15;;;;;;;5.60;1.52;;;14.90;58.80;;;;;;5019332;28;20125;-73
2023/04/14 10:56:41;;;;;;;5.20;1.40;;;15.00;58.60;;;;;;5017189;28;20052;-73
2023/04/14 10:59:09;;;;;;;6.97;1.70;;;15.00;58.60;;;;;;5020047;28;20111;-73
2023/04/14 11:01:36;;;;;;;4.32;1.15;;;15.00;57.50;;;;;;5020181;28;20405;-73
2023/04/14 11:04:18;;;;;;;6.90;1.50;;;15.00;55.70;;;;;;5021080;28;20033;-76
2023/04/14 11:06:46;;;;;;;4.88;1.23;;;15.00;55.40;;;;;;5018369;28;20072;-73
2023/04/14 11:09:30;;;;;;;3.10;1.25;;;15.30;55.40;;;;;;5017233;28;20104;-75
2023/04/14 11:12:20;;;;;;;4.78;1.50;;;15.40;55.40;;;;;;5015024;28;20485;-74
2023/04/14 11:14:46;;;;;;;7.70;1.30;;;15.70;55.70;;;;;;5016821;28;20096;-76
2023/04/14 11:17:21;;;;;;;4.15;1.33;;;16.00;55.80;;;;;;5019585;28;20442;-74
2023/04/14 11:19:47;;;;;;;7.32;1.70;;;16.10;55.10;;;;;;5016329;28;20025;-75
2023/04/14 11:22:13;;;;;;;5.50;1.75;;;16.00;53.50;;;;;;5015371;28;20050;-75
2023/04/14 11:24:39;;;;;;;4.85;1.60;;;16.20;54.40;;;;;;5020132;28;20037;-77
2023/04/14 11:27:10;;;;;;;5.60;1.50;;;16.20;53.30;;;;;;5014020;28;20060;-75
2023/04/14 11:29:35;;;;;;;;;;;16.50;55.00;;;;;;5019200;28;20045;-75
2023/04/14 11:32:02;;;;;;;8.27;1.50;;;16.40;54.20;;;;;;5017162;28;19909;-75
2023/04/14 11:34:28;;;;;;;7.40;1.30;;;16.50;51.60;;;;;;5016682;28;20097;-75
2023/04/14 11:36:54;;;;;;;3.38;0.90;;;16.70;50.80;;;;;;5017294;28;20042;-75
2023/04/14 11:39:20;;;;;;;4.10;0.98;;;16.90;49.80;;;;;;5013827;28;20067;-74
2023/04/14 11:41:47;;;;;;;5.07;1.40;;;16.50;49.90;;;;;;5015323;28;20033;-74
2023/04/14 11:44:17;;;;;;;3.85;1.05;;;16.50;49.50;;;;;;5017256;28;20358;-75
2023/04/14 11:46:42;;;;;;;6.68;0.98;;;16.40;49.20;;;;;;5013947;28;20395;-74
2023/04/14 11:49:08;;;;;;;4.30;1.10;;;16.30;49.60;;;;;;5018113;28;20128;-74
2023/04/14 11:51:33;;;;;;;4.43;1.33;;;16.20;49.80;;;;;;5022620;28;20116;-73
2023/04/14 11:53:59;;;;;;;6.55;1.27;;;16.30;48.60;;;;;;5022697;28;20036;-73
2023/04/14 11:56:26;;;;;;;5.93;1.02;;;16.30;50.20;;;;;;5015389;28;20098;-74
2023/04/14 11:58:59;;;;;;;3.85;0.82;;;16.40;49.50;;;;;;5020039;28;20029;-73
2023/04/14 12:01:25;;;;;;;4.13;1.20;;;16.50;47.60;;;;;;5018619;28;20033;-74
2023/04/14 12:03:51;;;;;;;3.10;0.80;;;16.50;49.80;;;;;;5021877;28;20089;-73
2023/04/14 12:06:17;;;;;;;3.78;0.90;;;16.80;49.90;;;;;;5015715;28;20119;-73
2023/04/14 12:08:49;;;;;;;5.00;1.15;;;16.40;51.50;;;;;;5018221;28;20430;-73
2023/04/14 12:11:15;;;;;;;4.75;0.93;;;16.00;51.20;;;;;;5017534;28;20422;-73
2023/04/14 12:13:42;;;;;;;4.15;1.00;;;16.00;52.30;;;;;;5017866;28;20041;-73
2023/04/14 12:16:08;;;;;;;4.28;0.85;;;15.70;50.90;;;;;;5015732;28;20065;-73
2023/04/14 12:18:34;;;;;;;3.40;1.27;;;15.60;52.80;;;;;;5010629;28;20057;-73
2023/04/14 12:21:04;;;;;;;5.47;1.20;;;15.70;54.10;;;;;;5018382;28;20053;-73
2023/04/14 12:23:40;;;;;;;4.22;0.98;;;15.70;51.90;;;;;;5022120;28;20037;-74
2023/04/14 12:26:10;;;;;;;6.13;1.23;;;15.70;54.30;;;;;;5035290;28;20056;-73
2023/04/14 12:28:38;;;;;;;3.22;0.98;;;15.60;54.70;;;;;;5019417;28;20108;-74
2023/04/14 12:31:03;;;;;;;5.18;0.82;;;15.50;56.50;;;;;;5017214;28;20095;-75
2023/04/14 12:33:31;;;;;;;5.88;1.10;;;15.50;57.10;;;;;;5020152;28;20033;-73
2023/04/14 12:36:01;;;;;;;5.35;1.27;;;15.50;55.90;;;;;;5020511;28;20091;-73
2023/04/14 12:38:28;;;;;;;5.78;1.13;;;15.20;57.70;;;;;;5023911;28;20025;-73
2023/04/14 12:40:55;;;;;;;3.72;1.20;;;14.80;58.30;;;;;;5025099;28;20038;-73
2023/04/14 12:43:30;;;;;;;4.53;1.30;;;14.80;59.60;;;;;;5027503;28;20033;-74
2023/04/14 12:45:57;;;;;;;5.68;1.58;;;14.70;60.10;;;;;;5020972;28;20043;-73
2023/04/14 12:48:42;;;;;;;4.15;1.45;;;14.70;61.10;;;;;;5024054;28;20045;-73